sensor_id;sensor_type;location;lat;lon;timestamp;pressure;altitude;pressure_sealevel;temperature;humidity
21730;BME280;11027;51.030;13.812;2023-05-07T00:00:58;100620.97;;;12.56;73.34
21730;BME280;11027;51.030;13.812;2023-05-07T00:03:24;100627.13;;;12.58;73.37
21730;BME280;11027;51.030;13.812;2023-05-07T00:05:51;100610.34;;;12.61;73.24
21730;BME280;11027;51.030;13.812;2023-05-07T00:08:18;100624.84;;;12.62;73.20
21730;BME280;11027;51.030;13.812;2023-05-07T00:10:43;100615.97;;;12.60;73.09
21730;BME280;11027;51.030;13.812;2023-05-07T00:13:08;100619.59;;;12.60;73.09
21730;BME280;11027;51.030;13.812;2023-05-07T00:15:34;100619.59;;;12.60;73.23
21730;BME280;11027;51.030;13.812;2023-05-07T00:17:59;100623.34;;;12.59;73.21
21730;BME280;11027;51.030;13.812;2023-05-07T00:20:25;100627.28;;;12.57;73.21
21730;BME280;11027;51.030;13.812;2023-05-07T00:22:50;100627.19;;;12.50;73.52
21730;BME280;11027;51.030;13.812;2023-05-07T00:25:15;100626.50;;;12.48;73.68
21730;BME280;11027;51.030;13.812;2023-05-07T00:27:40;100624.78;;;12.47;73.67
21730;BME280;11027;51.030;13.812;2023-05-07T00:30:06;100630.25;;;12.47;73.52
21730;BME280;11027;51.030;13.812;2023-05-07T00:32:32;100622.25;;;12.46;73.44
21730;BME280;11027;51.030;13.812;2023-05-07T00:34:57;100624.78;;;12.47;73.50
21730;BME280;11027;51.030;13.812;2023-05-07T00:37:22;100623.78;;;12.48;73.33
21730;BME280;11027;51.030;13.812;2023-05-07T00:39:47;100624.78;;;12.47;73.61
21730;BME280;11027;51.030;13.812;2023-05-07T00:42:13;100634.00;;;12.46;73.41
21730;BME280;11027;51.030;13.812;2023-05-07T00:44:40;100628.94;;;12.43;73.43
21730;BME280;11027;51.030;13.812;2023-05-07T00:47:05;100634.56;;;12.41;73.81
21730;BME280;11027;51.030;13.812;2023-05-07T00:49:49;100628.09;;;12.43;73.98
21730;BME280;11027;51.030;13.812;2023-05-07T00:52:16;100627.94;;;12.36;74.14
21730;BME280;11027;51.030;13.812;2023-05-07T00:54:42;100631.03;;;12.33;74.11
21730;BME280;11027;51.030;13.812;2023-05-07T00:57:09;100626.59;;;12.32;74.23
21730;BME280;11027;51.030;13.812;2023-05-07T00:59:36;100622.19;;;12.31;74.40
21730;BME280;11027;51.030;13.812;2023-05-07T01:02:01;100626.13;;;12.28;74.48
21730;BME280;11027;51.030;13.812;2023-05-07T01:04:26;100634.84;;;12.24;74.46
21730;BME280;11027;51.030;13.812;2023-05-07T01:06:53;100623.91;;;12.24;74.63
21730;BME280;11027;51.030;13.812;2023-05-07T01:09:21;100629.25;;;12.17;74.59
21730;BME280;11027;51.030;13.812;2023-05-07T01:11:49;100627.09;;;12.12;74.74
21730;BME280;11027;51.030;13.812;2023-05-07T01:14:15;100629.97;;;12.11;74.98
21730;BME280;11027;51.030;13.812;2023-05-07T01:16:40;100636.63;;;12.16;74.78
21730;BME280;11027;51.030;13.812;2023-05-07T01:19:07;100630.09;;;12.17;74.36
21730;BME280;11027;51.030;13.812;2023-05-07T01:21:33;100628.03;;;12.19;74.33
21730;BME280;11027;51.030;13.812;2023-05-07T01:24:00;100627.69;;;12.23;73.90
21730;BME280;11027;51.030;13.812;2023-05-07T01:26:25;100629.38;;;12.24;73.90
21730;BME280;11027;51.030;13.812;2023-05-07T01:28:51;100637.78;;;12.22;73.92
21730;BME280;11027;51.030;13.812;2023-05-07T01:31:16;100633.50;;;12.19;73.96
21730;BME280;11027;51.030;13.812;2023-05-07T01:33:43;100641.75;;;12.11;74.29
21730;BME280;11027;51.030;13.812;2023-05-07T01:36:10;100639.34;;;12.16;74.06
21730;BME280;11027;51.030;13.812;2023-05-07T01:38:37;100638.31;;;12.17;73.85
21730;BME280;11027;51.030;13.812;2023-05-07T01:41:03;100641.03;;;12.17;73.97
21730;BME280;11027;51.030;13.812;2023-05-07T01:43:30;100628.75;;;12.13;73.97
21730;BME280;11027;51.030;13.812;2023-05-07T01:45:57;100632.88;;;12.09;74.17
21730;BME280;11027;51.030;13.812;2023-05-07T01:48:24;100637.84;;;12.06;74.47
21730;BME280;11027;51.030;13.812;2023-05-07T01:50:50;100641.75;;;12.11;74.17
21730;BME280;11027;51.030;13.812;2023-05-07T01:53:15;100643.47;;;12.12;74.09
21730;BME280;11027;51.030;13.812;2023-05-07T01:55:40;100644.81;;;12.16;74.10
21730;BME280;11027;51.030;13.812;2023-05-07T01:58:06;100641.75;;;12.11;74.18
21730;BME280;11027;51.030;13.812;2023-05-07T02:00:31;100649.94;;;12.11;74.08
21730;BME280;11027;51.030;13.812;2023-05-07T02:02:57;100636.66;;;12.08;73.78
21730;BME280;11027;51.030;13.812;2023-05-07T02:05:22;100646.25;;;12.04;73.85
21730;BME280;11027;51.030;13.812;2023-05-07T02:07:47;100645.75;;;12.00;74.14
21730;BME280;11027;51.030;13.812;2023-05-07T02:10:13;100636.03;;;11.98;74.24
21730;BME280;11027;51.030;13.812;2023-05-07T02:12:38;100639.78;;;11.97;73.97
21730;BME280;11027;51.030;13.812;2023-05-07T02:15:03;100638.22;;;12.03;74.04
21730;BME280;11027;51.030;13.812;2023-05-07T02:17:28;100640.56;;;12.06;73.92
21730;BME280;11027;51.030;13.812;2023-05-07T02:19:56;100643.13;;;12.07;73.75
21730;BME280;11027;51.030;13.812;2023-05-07T02:22:22;100653.38;;;12.05;73.78
21730;BME280;11027;51.030;13.812;2023-05-07T02:24:47;100648.31;;;12.02;74.05
21730;BME280;11027;51.030;13.812;2023-05-07T02:27:12;100651.72;;;12.04;73.80
21730;BME280;11027;51.030;13.812;2023-05-07T02:29:37;100653.38;;;12.05;74.02
21730;BME280;11027;51.030;13.812;2023-05-07T02:32:03;100655.09;;;12.06;73.66
21730;BME280;11027;51.030;13.812;2023-05-07T02:34:28;100658.84;;;12.05;73.68
21730;BME280;11027;51.030;13.812;2023-05-07T02:36:53;100656.13;;;12.05;73.99
21730;BME280;11027;51.030;13.812;2023-05-07T02:39:18;100662.25;;;12.07;73.77
21730;BME280;11027;51.030;13.812;2023-05-07T02:41:44;100655.56;;;12.10;73.73
21730;BME280;11027;51.030;13.812;2023-05-07T02:44:09;100657.47;;;12.09;73.60
21730;BME280;11027;51.030;13.812;2023-05-07T02:46:34;100665.66;;;12.09;73.70
21730;BME280;11027;51.030;13.812;2023-05-07T02:49:00;100659.53;;;12.07;73.42
21730;BME280;11027;51.030;13.812;2023-05-07T02:51:25;100656.50;;;12.02;73.38
21730;BME280;11027;51.030;13.812;2023-05-07T02:53:51;100656.53;;;11.94;73.40
21730;BME280;11027;51.030;13.812;2023-05-07T02:56:16;100656.88;;;11.91;73.60
21730;BME280;11027;51.030;13.812;2023-05-07T02:58:41;100660.66;;;11.90;73.68
21730;BME280;11027;51.030;13.812;2023-05-07T03:01:08;100658.59;;;11.92;73.80
21730;BME280;11027;51.030;13.812;2023-05-07T03:03:34;100662.34;;;11.91;73.98
21730;BME280;11027;51.030;13.812;2023-05-07T03:05:59;100670.53;;;11.91;74.30
21730;BME280;11027;51.030;13.812;2023-05-07T03:08:24;100658.41;;;11.85;74.22
21730;BME280;11027;51.030;13.812;2023-05-07T03:10:50;100661.13;;;11.85;74.52
21730;BME280;11027;51.030;13.812;2023-05-07T03:13:15;100659.28;;;11.86;74.60
21730;BME280;11027;51.030;13.812;2023-05-07T03:15:40;100653.47;;;11.80;74.21
21730;BME280;11027;51.030;13.812;2023-05-07T03:18:06;100650.75;;;11.80;74.24
21730;BME280;11027;51.030;13.812;2023-05-07T03:20:31;100651.75;;;11.79;74.44
21730;BME280;11027;51.030;13.812;2023-05-07T03:22:56;100656.22;;;11.80;74.34
21730;BME280;11027;51.030;13.812;2023-05-07T03:25:22;100659.94;;;11.79;74.43
21730;BME280;11027;51.030;13.812;2023-05-07T03:27:47;100662.88;;;11.78;74.59
21730;BME280;11027;51.030;13.812;2023-05-07T03:30:12;100667.50;;;11.69;74.89
21730;BME280;11027;51.030;13.812;2023-05-07T03:32:37;100670.94;;;11.63;75.04
21730;BME280;11027;51.030;13.812;2023-05-07T03:35:03;100668.72;;;11.58;75.68
21730;BME280;11027;51.030;13.812;2023-05-07T03:37:28;100664.47;;;11.56;76.01
21730;BME280;11027;51.030;13.812;2023-05-07T03:39:53;100675.41;;;11.56;75.83
21730;BME280;11027;51.030;13.812;2023-05-07T03:42:19;100667.53;;;11.61;76.08
21730;BME280;11027;51.030;13.812;2023-05-07T03:44:44;100675.03;;;11.59;76.07
21730;BME280;11027;51.030;13.812;2023-05-07T03:47:09;100667.72;;;11.59;76.39
21730;BME280;11027;51.030;13.812;2023-05-07T03:49:35;100675.41;;;11.56;76.36
21730;BME280;11027;51.030;13.812;2023-05-07T03:52:00;100676.59;;;11.61;76.42
21730;BME280;11027;51.030;13.812;2023-05-07T03:54:26;100672.97;;;11.61;76.18
21730;BME280;11027;51.030;13.812;2023-05-07T03:56:51;100681.03;;;11.46;76.75
21730;BME280;11027;51.030;13.812;2023-05-07T03:59:16;100671.84;;;11.39;76.75
21730;BME280;11027;51.030;13.812;2023-05-07T04:01:41;100677.50;;;11.37;77.19
21730;BME280;11027;51.030;13.812;2023-05-07T04:04:07;100675.91;;;11.43;76.94
21730;BME280;11027;51.030;13.812;2023-05-07T04:06:32;100680.19;;;11.46;76.86
21730;BME280;11027;51.030;13.812;2023-05-07T04:08:57;100675.91;;;11.43;77.17
21730;BME280;11027;51.030;13.812;2023-05-07T04:11:23;100678.47;;;11.45;76.79
21730;BME280;11027;51.030;13.812;2023-05-07T04:13:48;100688.69;;;11.51;77.08
21730;BME280;11027;51.030;13.812;2023-05-07T04:16:13;100683.25;;;11.51;76.91
21730;BME280;11027;51.030;13.812;2023-05-07T04:18:39;100683.91;;;11.53;76.84
21730;BME280;11027;51.030;13.812;2023-05-07T04:21:05;100686.31;;;11.56;76.71
21730;BME280;11027;51.030;13.812;2023-05-07T04:23:30;100693.47;;;11.57;76.89
21730;BME280;11027;51.030;13.812;2023-05-07T04:25:55;100688.00;;;11.57;76.75
21730;BME280;11027;51.030;13.812;2023-05-07T04:28:21;100693.13;;;11.60;76.99
21730;BME280;11027;51.030;13.812;2023-05-07T04:30:46;100691.06;;;11.62;76.42
21730;BME280;11027;51.030;13.812;2023-05-07T04:33:11;100692.59;;;11.65;76.18
21730;BME280;11027;51.030;13.812;2023-05-07T04:35:36;100704.19;;;11.67;76.50
21730;BME280;11027;51.030;13.812;2023-05-07T04:38:02;100702.63;;;11.72;76.46
21730;BME280;11027;51.030;13.812;2023-05-07T04:40:27;100703.16;;;11.76;76.20
21730;BME280;11027;51.030;13.812;2023-05-07T04:42:52;100717.81;;;11.75;76.05
21730;BME280;11027;51.030;13.812;2023-05-07T04:45:18;100714.78;;;11.70;75.99
21730;BME280;11027;51.030;13.812;2023-05-07T04:47:43;100721.59;;;11.66;75.98
21730;BME280;11027;51.030;13.812;2023-05-07T04:50:09;100722.09;;;11.61;75.80
21730;BME280;11027;51.030;13.812;2023-05-07T04:52:35;100727.25;;;11.56;76.10
21730;BME280;11027;51.030;13.812;2023-05-07T04:55:00;100725.88;;;11.52;75.58
21730;BME280;11027;51.030;13.812;2023-05-07T04:57:26;100719.59;;;11.51;75.79
21730;BME280;11027;51.030;13.812;2023-05-07T04:59:52;100730.66;;;11.50;75.37
21730;BME280;11027;51.030;13.812;2023-05-07T05:02:17;100736.47;;;11.47;75.24
21730;BME280;11027;51.030;13.812;2023-05-07T05:04:43;100745.69;;;11.46;75.22
21730;BME280;11027;51.030;13.812;2023-05-07T05:07:08;100742.97;;;11.46;75.27
21730;BME280;11027;51.030;13.812;2023-05-07T05:09:33;100739.34;;;11.45;75.28
21730;BME280;11027;51.030;13.812;2023-05-07T05:11:59;100735.28;;;11.49;75.21
21730;BME280;11027;51.030;13.812;2023-05-07T05:14:24;100738.47;;;11.61;75.28
21730;BME280;11027;51.030;13.812;2023-05-07T05:16:49;100745.81;;;11.69;75.03
21730;BME280;11027;51.030;13.812;2023-05-07T05:19:15;100734.88;;;11.69;74.75
21730;BME280;11027;51.030;13.812;2023-05-07T05:21:40;100737.44;;;11.70;74.74
21730;BME280;11027;51.030;13.812;2023-05-07T05:24:05;100737.97;;;11.74;74.54
21730;BME280;11027;51.030;13.812;2023-05-07T05:26:31;100741.84;;;11.79;74.32
21730;BME280;11027;51.030;13.812;2023-05-07T05:28:56;100740.66;;;11.82;74.24
21730;BME280;11027;51.030;13.812;2023-05-07T05:31:21;100743.22;;;11.84;74.21
21730;BME280;11027;51.030;13.812;2023-05-07T05:33:46;100743.91;;;11.77;74.12
21730;BME280;11027;51.030;13.812;2023-05-07T05:36:12;100752.75;;;11.79;74.30
21730;BME280;11027;51.030;13.812;2023-05-07T05:38:38;100761.97;;;11.87;74.04
21730;BME280;11027;51.030;13.812;2023-05-07T05:41:03;100763.69;;;11.96;73.87
21730;BME280;11027;51.030;13.812;2023-05-07T05:43:29;100762.31;;;12.00;73.79
21730;BME280;11027;51.030;13.812;2023-05-07T05:45:55;100767.09;;;11.98;73.45
21730;BME280;11027;51.030;13.812;2023-05-07T05:48:21;100767.44;;;11.95;72.83
21730;BME280;11027;51.030;13.812;2023-05-07T05:50:46;100768.28;;;11.95;72.89
21730;BME280;11027;51.030;13.812;2023-05-07T05:53:11;100773.75;;;11.95;72.76
21730;BME280;11027;51.030;13.812;2023-05-07T05:55:36;100767.97;;;11.90;72.41
21730;BME280;11027;51.030;13.812;2023-05-07T05:58:02;100778.34;;;11.87;72.56
21730;BME280;11027;51.030;13.812;2023-05-07T06:00:27;100784.19;;;11.92;72.71
21730;BME280;11027;51.030;13.812;2023-05-07T06:02:53;100782.81;;;11.96;72.69
21730;BME280;11027;51.030;13.812;2023-05-07T06:05:18;100783.13;;;12.01;72.76
21730;BME280;11027;51.030;13.812;2023-05-07T06:07:43;100783.63;;;12.05;72.42
21730;BME280;11027;51.030;13.812;2023-05-07T06:10:09;100791.28;;;12.09;72.14
21730;BME280;11027;51.030;13.812;2023-05-07T06:12:34;100789.41;;;12.18;71.94
21730;BME280;11027;51.030;13.812;2023-05-07T06:14:59;100799.13;;;12.20;71.94
21730;BME280;11027;51.030;13.812;2023-05-07T06:17:24;100800.47;;;12.25;71.46
21730;BME280;11027;51.030;13.812;2023-05-07T06:19:51;100805.56;;;12.28;71.61
21730;BME280;11027;51.030;13.812;2023-05-07T06:22:16;100806.06;;;12.31;71.37
21730;BME280;11027;51.030;13.812;2023-05-07T06:24:42;100802.34;;;12.32;70.91
21730;BME280;11027;51.030;13.812;2023-05-07T06:27:07;100809.84;;;12.30;70.64
21730;BME280;11027;51.030;13.812;2023-05-07T06:29:33;100813.44;;;12.31;70.36
21730;BME280;11027;51.030;13.812;2023-05-07T06:32:08;100811.03;;;12.28;70.33
21730;BME280;11027;51.030;13.812;2023-05-07T06:34:34;100808.97;;;12.30;70.22
21730;BME280;11027;51.030;13.812;2023-05-07T06:36:59;100802.66;;;12.29;70.53
21730;BME280;11027;51.030;13.812;2023-05-07T06:39:24;100798.03;;;12.30;70.50
21730;BME280;11027;51.030;13.812;2023-05-07T06:41:50;100801.31;;;12.25;70.31
21730;BME280;11027;51.030;13.812;2023-05-07T06:44:15;100800.47;;;12.25;70.34
21730;BME280;11027;51.030;13.812;2023-05-07T06:46:41;100801.81;;;12.29;70.21
21730;BME280;11027;51.030;13.812;2023-05-07T06:49:06;100811.53;;;12.31;70.03
21730;BME280;11027;51.030;13.812;2023-05-07T06:51:32;100824.66;;;12.36;70.14
21730;BME280;11027;51.030;13.812;2023-05-07T06:53:57;100820.53;;;12.40;70.16
21730;BME280;11027;51.030;13.812;2023-05-07T06:56:22;100820.88;;;12.45;69.76
21730;BME280;11027;51.030;13.812;2023-05-07T06:58:48;100818.50;;;12.42;69.83
21730;BME280;11027;51.030;13.812;2023-05-07T07:01:13;100816.81;;;12.41;69.50
21730;BME280;11027;51.030;13.812;2023-05-07T07:03:38;100813.03;;;12.42;69.50
21730;BME280;11027;51.030;13.812;2023-05-07T07:06:04;100825.53;;;12.36;69.69
21730;BME280;11027;51.030;13.812;2023-05-07T07:08:29;100823.53;;;12.22;69.68
21730;BME280;11027;51.030;13.812;2023-05-07T07:10:54;100828.69;;;12.09;70.26
21730;BME280;11027;51.030;13.812;2023-05-07T07:13:20;100815.56;;;12.04;70.59
21730;BME280;11027;51.030;13.812;2023-05-07T07:15:45;100818.97;;;12.06;70.87
21730;BME280;11027;51.030;13.812;2023-05-07T07:18:10;100818.78;;;12.16;71.06
21730;BME280;11027;51.030;13.812;2023-05-07T07:20:36;100827.44;;;12.19;70.58
21730;BME280;11027;51.030;13.812;2023-05-07T07:23:01;100829.84;;;12.23;70.48
21730;BME280;11027;51.030;13.812;2023-05-07T07:25:26;100829.69;;;12.24;70.28
21730;BME280;11027;51.030;13.812;2023-05-07T07:27:52;100835.31;;;12.23;69.87
21730;BME280;11027;51.030;13.812;2023-05-07T07:30:17;100833.25;;;12.25;69.82
21730;BME280;11027;51.030;13.812;2023-05-07T07:32:42;100832.88;;;12.28;69.85
21730;BME280;11027;51.030;13.812;2023-05-07T07:35:08;100827.94;;;12.31;69.56
21730;BME280;11027;51.030;13.812;2023-05-07T07:37:33;100832.19;;;12.34;69.25
21730;BME280;11027;51.030;13.812;2023-05-07T07:39:59;100839.00;;;12.38;69.22
21730;BME280;11027;51.030;13.812;2023-05-07T07:42:24;100835.56;;;12.44;69.41
21730;BME280;11027;51.030;13.812;2023-05-07T07:44:50;100843.75;;;12.44;68.68
21730;BME280;11027;51.030;13.812;2023-05-07T07:47:15;100836.94;;;12.40;68.66
21730;BME280;11027;51.030;13.812;2023-05-07T07:49:40;100834.88;;;12.42;68.30
21730;BME280;11027;51.030;13.812;2023-05-07T07:52:06;100844.13;;;12.41;67.92
21730;BME280;11027;51.030;13.812;2023-05-07T07:54:31;100847.88;;;12.40;68.15
21730;BME280;11027;51.030;13.812;2023-05-07T07:56:56;100848.91;;;12.39;68.01
21730;BME280;11027;51.030;13.812;2023-05-07T07:59:21;100848.25;;;12.37;68.12
21730;BME280;11027;51.030;13.812;2023-05-07T08:01:47;100848.06;;;12.38;67.99
21730;BME280;11027;51.030;13.812;2023-05-07T08:04:15;100847.88;;;12.40;68.05
21730;BME280;11027;51.030;13.812;2023-05-07T08:06:40;100850.81;;;12.38;68.29
21730;BME280;11027;51.030;13.812;2023-05-07T08:09:05;100857.78;;;12.41;68.55
21730;BME280;11027;51.030;13.812;2023-05-07T08:11:30;100852.16;;;12.43;68.75
21730;BME280;11027;51.030;13.812;2023-05-07T08:13:56;100855.69;;;12.51;68.82
21730;BME280;11027;51.030;13.812;2023-05-07T08:16:21;100863.88;;;12.59;68.60
21730;BME280;11027;51.030;13.812;2023-05-07T08:18:46;100860.78;;;12.63;68.19
21730;BME280;11027;51.030;13.812;2023-05-07T08:21:12;100865.59;;;12.60;68.17
21730;BME280;11027;51.030;13.812;2023-05-07T08:23:37;100861.50;;;12.56;68.07
21730;BME280;11027;51.030;13.812;2023-05-07T08:26:02;100863.19;;;12.57;67.99
21730;BME280;11027;51.030;13.812;2023-05-07T08:28:27;100862.19;;;12.58;67.89
21730;BME280;11027;51.030;13.812;2023-05-07T08:30:53;100867.28;;;12.61;67.95
21730;BME280;11027;51.030;13.812;2023-05-07T08:33:18;100866.94;;;12.65;67.97
21730;BME280;11027;51.030;13.812;2023-05-07T08:35:43;100871.69;;;12.71;67.90
21730;BME280;11027;51.030;13.812;2023-05-07T08:38:09;100871.66;;;12.79;67.57
21730;BME280;11027;51.030;13.812;2023-05-07T08:40:37;100868.22;;;12.85;67.52
21730;BME280;11027;51.030;13.812;2023-05-07T08:43:05;100858.75;;;12.96;67.31
21730;BME280;11027;51.030;13.812;2023-05-07T08:45:34;100871.53;;;13.04;66.91
21730;BME280;11027;51.030;13.812;2023-05-07T08:48:02;100867.34;;;13.16;66.84
21730;BME280;11027;51.030;13.812;2023-05-07T08:50:28;100866.78;;;13.20;66.84
21730;BME280;11027;51.030;13.812;2023-05-07T08:52:54;100865.66;;;13.15;66.33
21730;BME280;11027;51.030;13.812;2023-05-07T08:55:20;100875.59;;;13.08;66.28
21730;BME280;11027;51.030;13.812;2023-05-07T08:57:45;100879.72;;;13.04;66.34
21730;BME280;11027;51.030;13.812;2023-05-07T09:00:12;100883.84;;;12.99;66.43
21730;BME280;11027;51.030;13.812;2023-05-07T09:02:37;100877.00;;;13.04;66.41
21730;BME280;11027;51.030;13.812;2023-05-07T09:05:03;100883.09;;;13.14;66.23
21730;BME280;11027;51.030;13.812;2023-05-07T09:07:30;100880.31;;;13.22;66.01
21730;BME280;11027;51.030;13.812;2023-05-07T09:09:55;100880.31;;;13.22;65.82
21730;BME280;11027;51.030;13.812;2023-05-07T09:12:22;100882.88;;;13.24;65.87
21730;BME280;11027;51.030;13.812;2023-05-07T09:14:48;100881.34;;;13.21;65.86
21730;BME280;11027;51.030;13.812;2023-05-07T09:17:15;100893.00;;;13.15;65.73
21730;BME280;11027;51.030;13.812;2023-05-07T09:19:40;100896.94;;;13.12;65.85
21730;BME280;11027;51.030;13.812;2023-05-07T09:22:06;100895.25;;;13.11;65.60
21730;BME280;11027;51.030;13.812;2023-05-07T09:24:34;100901.22;;;13.15;65.91
21730;BME280;11027;51.030;13.812;2023-05-07T09:27:02;100899.84;;;13.19;65.96
21730;BME280;11027;51.030;13.812;2023-05-07T09:29:28;100898.78;;;13.20;65.75
21730;BME280;11027;51.030;13.812;2023-05-07T09:32:06;100900.00;;;13.17;65.80
21730;BME280;11027;51.030;13.812;2023-05-07T09:34:33;100901.56;;;13.12;65.63
21730;BME280;11027;51.030;13.812;2023-05-07T09:37:00;100897.81;;;13.13;65.23
21730;BME280;11027;51.030;13.812;2023-05-07T09:39:25;100899.16;;;13.17;65.21
21730;BME280;11027;51.030;13.812;2023-05-07T09:41:51;100888.84;;;13.27;64.94
21730;BME280;11027;51.030;13.812;2023-05-07T09:44:19;100891.50;;;13.44;64.62
21730;BME280;11027;51.030;13.812;2023-05-07T09:46:46;100893.50;;;13.50;63.80
21730;BME280;11027;51.030;13.812;2023-05-07T09:49:18;100898.75;;;13.59;63.73
21730;BME280;11027;51.030;13.812;2023-05-07T09:51:50;100904.16;;;13.68;63.02
21730;BME280;11027;51.030;13.812;2023-05-07T09:54:16;100898.47;;;13.69;63.10
21730;BME280;11027;51.030;13.812;2023-05-07T09:56:43;100902.59;;;13.65;62.76
21730;BME280;11027;51.030;13.812;2023-05-07T09:59:13;100897.41;;;13.55;62.79
21730;BME280;11027;51.030;13.812;2023-05-07T10:01:41;100899.31;;;13.47;62.63
21730;BME280;11027;51.030;13.812;2023-05-07T10:04:07;100896.91;;;13.52;62.88
21730;BME280;11027;51.030;13.812;2023-05-07T10:06:36;100896.28;;;13.65;62.57
21730;BME280;11027;51.030;13.812;2023-05-07T10:09:03;100890.66;;;13.81;62.41
21730;BME280;11027;51.030;13.812;2023-05-07T10:11:32;100891.75;;;13.95;62.16
21730;BME280;11027;51.030;13.812;2023-05-07T10:13:58;100890.25;;;14.07;61.71
21730;BME280;11027;51.030;13.812;2023-05-07T10:16:25;100882.44;;;14.04;61.57
21730;BME280;11027;51.030;13.812;2023-05-07T10:18:50;100885.91;;;13.98;61.75
21730;BME280;11027;51.030;13.812;2023-05-07T10:21:21;100890.41;;;13.91;61.71
21730;BME280;11027;51.030;13.812;2023-05-07T10:23:51;100893.81;;;13.93;61.89
21730;BME280;11027;51.030;13.812;2023-05-07T10:26:20;100895.16;;;13.97;61.83
21730;BME280;11027;51.030;13.812;2023-05-07T10:28:49;100898.56;;;13.99;61.86
21730;BME280;11027;51.030;13.812;2023-05-07T10:31:44;100893.47;;;13.96;61.68
21730;BME280;11027;51.030;13.812;2023-05-07T10:34:17;100892.47;;;14.12;61.61
21730;BME280;11027;51.030;13.812;2023-05-07T10:36:45;100887.34;;;14.24;61.15
21730;BME280;11027;51.030;13.812;2023-05-07T10:39:12;100874.81;;;14.44;61.46
21730;BME280;11027;51.030;13.812;2023-05-07T10:41:39;100873.34;;;14.56;60.56
21730;BME280;11027;51.030;13.812;2023-05-07T10:44:04;100874.66;;;14.60;60.09
21730;BME280;11027;51.030;13.812;2023-05-07T10:46:29;100875.03;;;14.57;59.69
21730;BME280;11027;51.030;13.812;2023-05-07T10:49:06;100878.31;;;14.68;59.90
21730;BME280;11027;51.030;13.812;2023-05-07T10:51:32;100876.53;;;14.75;59.63
21730;BME280;11027;51.030;13.812;2023-05-07T10:56:36;100872.44;;;14.86;59.52
21730;BME280;11027;51.030;13.812;2023-05-07T11:01:53;100871.41;;;14.87;58.70
21730;BME280;11027;51.030;13.812;2023-05-07T11:04:19;100874.72;;;14.82;58.71
21730;BME280;11027;51.030;13.812;2023-05-07T11:15:06;100882.75;;;14.54;58.78
21730;BME280;11027;51.030;13.812;2023-05-07T11:17:32;100881.25;;;14.51;59.52
21730;BME280;11027;51.030;13.812;2023-05-07T11:20:00;100875.75;;;14.51;60.03
21730;BME280;11027;51.030;13.812;2023-05-07T11:25:04;100868.41;;;14.67;59.91
21730;BME280;11027;51.030;13.812;2023-05-07T11:27:30;100866.34;;;14.69;59.20
21730;BME280;11027;51.030;13.812;2023-05-07T11:29:56;100870.09;;;14.68;59.20
21730;BME280;11027;51.030;13.812;2023-05-07T11:32:26;100865.28;;;14.70;59.00
21730;BME280;11027;51.030;13.812;2023-05-07T11:34:52;100865.66;;;14.82;59.46
21730;BME280;11027;51.030;13.812;2023-05-07T11:37:18;100871.19;;;14.88;59.08
21730;BME280;11027;51.030;13.812;2023-05-07T11:39:44;100871.59;;;14.85;59.12
21730;BME280;11027;51.030;13.812;2023-05-07T11:42:29;100868.56;;;14.80;59.14
21730;BME280;11027;51.030;13.812;2023-05-07T11:44:55;100872.56;;;14.77;59.22
21730;BME280;11027;51.030;13.812;2023-05-07T11:47:20;100863.84;;;14.74;59.69
21730;BME280;11027;51.030;13.812;2023-05-07T11:49:50;100866.78;;;14.72;59.28
21730;BME280;11027;51.030;13.812;2023-05-07T11:52:17;100872.06;;;14.74;59.85
21730;BME280;11027;51.030;13.812;2023-05-07T11:54:53;100870.66;;;14.78;60.11
21730;BME280;11027;51.030;13.812;2023-05-07T11:57:20;100866.78;;;14.87;59.73
21730;BME280;11027;51.030;13.812;2023-05-07T11:59:45;100865.88;;;15.02;59.69
21730;BME280;11027;51.030;13.812;2023-05-07T12:02:14;100870.69;;;15.14;59.91
21730;BME280;11027;51.030;13.812;2023-05-07T12:04:39;100866.97;;;15.22;59.42
21730;BME280;11027;51.030;13.812;2023-05-07T12:07:05;100868.28;;;15.26;59.30
21730;BME280;11027;51.030;13.812;2023-05-07T12:09:32;100867.13;;;15.35;59.19
21730;BME280;11027;51.030;13.812;2023-05-07T12:12:03;100869.97;;;15.49;58.81
21730;BME280;11027;51.030;13.812;2023-05-07T12:14:28;100872.88;;;15.62;58.61
21730;BME280;11027;51.030;13.812;2023-05-07T12:16:54;100868.28;;;15.69;58.08
21730;BME280;11027;51.030;13.812;2023-05-07T12:19:20;100870.84;;;15.71;57.97
21730;BME280;11027;51.030;13.812;2023-05-07T12:21:45;100874.19;;;15.66;57.79
21730;BME280;11027;51.030;13.812;2023-05-07T12:24:11;100867.75;;;15.59;57.88
21730;BME280;11027;51.030;13.812;2023-05-07T12:26:39;100876.13;;;15.51;57.66
21730;BME280;11027;51.030;13.812;2023-05-07T12:29:05;100880.78;;;15.50;58.19
21730;BME280;11027;51.030;13.812;2023-05-07T12:31:31;100880.78;;;15.50;58.55
21730;BME280;11027;51.030;13.812;2023-05-07T12:33:56;100877.84;;;15.52;58.18
21730;BME280;11027;51.030;13.812;2023-05-07T12:36:21;100885.53;;;15.63;58.60
21730;BME280;11027;51.030;13.812;2023-05-07T12:38:49;100888.31;;;15.85;57.89
21730;BME280;11027;51.030;13.812;2023-05-07T12:41:15;100882.66;;;16.14;57.75
21730;BME280;11027;51.030;13.812;2023-05-07T12:43:44;100887.94;;;16.44;56.94
21730;BME280;11027;51.030;13.812;2023-05-07T12:46:10;100876.44;;;16.69;55.36
21730;BME280;11027;51.030;13.812;2023-05-07T12:48:37;100882.28;;;16.94;54.77
21730;BME280;11027;51.030;13.812;2023-05-07T12:51:02;100877.09;;;17.19;54.78